sensor_id;sensor_type;location;lat;lon;timestamp;P1;durP1;ratioP1;P2;durP2;ratioP2
14306;SDS011;7237;49.500;11.400;2022-09-25T00:01:57;21.97;;;19.77;;
14306;SDS011;7237;49.500;11.400;2022-09-25T00:04:24;21.13;;;17.83;;
14306;SDS011;7237;49.500;11.400;2022-09-25T00:06:51;21.53;;;19.23;;
14306;SDS011;7237;49.500;11.400;2022-09-25T00:09:18;21.70;;;19.40;;
14306;SDS011;7237;49.500;11.400;2022-09-25T00:11:48;21.57;;;19.23;;
14306;SDS011;7237;49.500;11.400;2022-09-25T00:14:15;20.67;;;17.97;;
14306;SDS011;7237;49.500;11.400;2022-09-25T00:16:42;19.93;;;17.93;;
14306;SDS011;7237;49.500;11.400;2022-09-25T00:19:10;19.50;;;17.57;;
14306;SDS011;7237;49.500;11.400;2022-09-25T00:22:02;19.73;;;17.43;;
14306;SDS011;7237;49.500;11.400;2022-09-25T00:24:29;19.20;;;17.23;;
14306;SDS011;7237;49.500;11.400;2022-09-25T00:26:58;20.97;;;17.80;;
14306;SDS011;7237;49.500;11.400;2022-09-25T00:29:25;19.63;;;17.63;;
14306;SDS011;7237;49.500;11.400;2022-09-25T00:31:54;19.30;;;17.30;;
14306;SDS011;7237;49.500;11.400;2022-09-25T00:34:22;19.03;;;17.03;;
14306;SDS011;7237;49.500;11.400;2022-09-25T00:36:49;22.07;;;17.70;;
14306;SDS011;7237;49.500;11.400;2022-09-25T00:39:16;21.00;;;17.80;;
14306;SDS011;7237;49.500;11.400;2022-09-25T00:41:43;19.23;;;17.33;;
14306;SDS011;7237;49.500;11.400;2022-09-25T00:46:57;20.00;;;17.60;;
14306;SDS011;7237;49.500;11.400;2022-09-25T00:49:25;19.87;;;17.77;;
14306;SDS011;7237;49.500;11.400;2022-09-25T00:51:52;22.40;;;16.90;;
14306;SDS011;7237;49.500;11.400;2022-09-25T00:54:21;23.90;;;19.20;;
14306;SDS011;7237;49.500;11.400;2022-09-25T00:56:50;19.43;;;17.33;;
14306;SDS011;7237;49.500;11.400;2022-09-25T00:59:18;18.30;;;16.43;;
14306;SDS011;7237;49.500;11.400;2022-09-25T01:01:46;21.07;;;18.87;;
14306;SDS011;7237;49.500;11.400;2022-09-25T01:04:15;20.37;;;17.60;;
14306;SDS011;7237;49.500;11.400;2022-09-25T01:06:44;20.33;;;18.17;;
14306;SDS011;7237;49.500;11.400;2022-09-25T01:09:11;21.33;;;18.23;;
14306;SDS011;7237;49.500;11.400;2022-09-25T01:11:38;18.67;;;16.87;;
14306;SDS011;7237;49.500;11.400;2022-09-25T01:14:05;33.20;;;17.63;;
14306;SDS011;7237;49.500;11.400;2022-09-25T01:16:34;23.93;;;15.87;;
14306;SDS011;7237;49.500;11.400;2022-09-25T01:19:04;48.60;;;17.67;;
14306;SDS011;7237;49.500;11.400;2022-09-25T01:21:37;61.20;;;18.60;;
14306;SDS011;7237;49.500;11.400;2022-09-25T01:24:11;74.80;;;19.13;;
14306;SDS011;7237;49.500;11.400;2022-09-25T01:29:25;72.10;;;20.77;;
14306;SDS011;7237;49.500;11.400;2022-09-25T01:31:54;32.07;;;19.13;;
14306;SDS011;7237;49.500;11.400;2022-09-25T01:34:27;24.87;;;19.73;;
14306;SDS011;7237;49.500;11.400;2022-09-25T01:36:56;21.70;;;19.40;;
14306;SDS011;7237;49.500;11.400;2022-09-25T01:39:26;21.33;;;19.00;;
14306;SDS011;7237;49.500;11.400;2022-09-25T01:41:56;22.13;;;19.30;;
14306;SDS011;7237;49.500;11.400;2022-09-25T01:44:26;24.40;;;21.97;;
14306;SDS011;7237;49.500;11.400;2022-09-25T01:46:55;24.33;;;21.77;;
14306;SDS011;7237;49.500;11.400;2022-09-25T01:49:26;26.47;;;20.43;;
14306;SDS011;7237;49.500;11.400;2022-09-25T01:51:55;24.33;;;21.27;;
14306;SDS011;7237;49.500;11.400;2022-09-25T01:54:23;45.77;;;22.87;;
14306;SDS011;7237;49.500;11.400;2022-09-25T01:56:53;28.43;;;22.27;;
14306;SDS011;7237;49.500;11.400;2022-09-25T01:59:23;22.43;;;19.73;;
14306;SDS011;7237;49.500;11.400;2022-09-25T02:01:53;27.73;;;21.57;;
14306;SDS011;7237;49.500;11.400;2022-09-25T02:04:22;24.80;;;21.30;;
14306;SDS011;7237;49.500;11.400;2022-09-25T02:06:50;25.43;;;20.53;;
14306;SDS011;7237;49.500;11.400;2022-09-25T02:09:19;23.73;;;21.10;;
14306;SDS011;7237;49.500;11.400;2022-09-25T02:11:48;26.77;;;21.40;;
14306;SDS011;7237;49.500;11.400;2022-09-25T02:14:17;25.83;;;19.67;;
14306;SDS011;7237;49.500;11.400;2022-09-25T02:16:46;24.10;;;19.07;;
14306;SDS011;7237;49.500;11.400;2022-09-25T02:19:15;73.27;;;21.57;;
14306;SDS011;7237;49.500;11.400;2022-09-25T02:22:01;45.03;;;21.20;;
14306;SDS011;7237;49.500;11.400;2022-09-25T02:24:32;71.13;;;20.73;;
14306;SDS011;7237;49.500;11.400;2022-09-25T02:27:01;36.93;;;21.60;;
14306;SDS011;7237;49.500;11.400;2022-09-25T02:29:28;26.73;;;21.67;;
14306;SDS011;7237;49.500;11.400;2022-09-25T02:31:56;23.27;;;20.77;;
14306;SDS011;7237;49.500;11.400;2022-09-25T02:34:25;25.47;;;21.77;;
14306;SDS011;7237;49.500;11.400;2022-09-25T02:36:52;24.47;;;20.97;;
14306;SDS011;7237;49.500;11.400;2022-09-25T02:39:20;24.33;;;20.83;;
14306;SDS011;7237;49.500;11.400;2022-09-25T02:41:52;26.77;;;21.77;;
14306;SDS011;7237;49.500;11.400;2022-09-25T02:44:26;30.63;;;22.00;;
14306;SDS011;7237;49.500;11.400;2022-09-25T02:46:59;27.33;;;21.07;;
14306;SDS011;7237;49.500;11.400;2022-09-25T02:49:31;35.80;;;23.70;;
14306;SDS011;7237;49.500;11.400;2022-09-25T02:52:04;32.60;;;23.00;;
14306;SDS011;7237;49.500;11.400;2022-09-25T02:54:34;26.27;;;21.23;;
14306;SDS011;7237;49.500;11.400;2022-09-25T02:57:05;30.00;;;21.60;;
14306;SDS011;7237;49.500;11.400;2022-09-25T02:59:35;36.13;;;22.80;;
14306;SDS011;7237;49.500;11.400;2022-09-25T03:02:03;29.43;;;22.80;;
14306;SDS011;7237;49.500;11.400;2022-09-25T03:04:32;26.87;;;21.63;;
14306;SDS011;7237;49.500;11.400;2022-09-25T03:07:03;25.23;;;21.03;;
14306;SDS011;7237;49.500;11.400;2022-09-25T03:09:30;27.00;;;20.77;;
14306;SDS011;7237;49.500;11.400;2022-09-25T03:11:59;23.50;;;20.17;;
14306;SDS011;7237;49.500;11.400;2022-09-25T03:14:27;23.30;;;20.63;;
14306;SDS011;7237;49.500;11.400;2022-09-25T03:16:54;22.70;;;19.70;;
14306;SDS011;7237;49.500;11.400;2022-09-25T03:19:22;23.13;;;20.60;;
14306;SDS011;7237;49.500;11.400;2022-09-25T03:21:52;24.07;;;18.93;;
14306;SDS011;7237;49.500;11.400;2022-09-25T03:24:19;21.70;;;19.40;;
14306;SDS011;7237;49.500;11.400;2022-09-25T03:26:46;26.53;;;20.77;;
14306;SDS011;7237;49.500;11.400;2022-09-25T03:29:14;21.30;;;19.07;;
14306;SDS011;7237;49.500;11.400;2022-09-25T03:31:41;24.03;;;19.93;;
14306;SDS011;7237;49.500;11.400;2022-09-25T03:34:09;24.10;;;19.77;;
14306;SDS011;7237;49.500;11.400;2022-09-25T03:36:37;20.60;;;18.17;;
14306;SDS011;7237;49.500;11.400;2022-09-25T03:39:06;21.17;;;18.30;;
14306;SDS011;7237;49.500;11.400;2022-09-25T03:41:34;22.80;;;19.30;;
14306;SDS011;7237;49.500;11.400;2022-09-25T03:44:02;21.47;;;18.57;;
14306;SDS011;7237;49.500;11.400;2022-09-25T03:46:30;20.73;;;18.27;;
14306;SDS011;7237;49.500;11.400;2022-09-25T03:48:57;21.20;;;18.43;;
14306;SDS011;7237;49.500;11.400;2022-09-25T03:51:25;21.83;;;19.03;;
14306;SDS011;7237;49.500;11.400;2022-09-25T03:53:53;20.37;;;18.17;;
14306;SDS011;7237;49.500;11.400;2022-09-25T03:56:22;21.13;;;18.43;;
14306;SDS011;7237;49.500;11.400;2022-09-25T03:58:50;20.57;;;18.37;;
14306;SDS011;7237;49.500;11.400;2022-09-25T04:01:18;22.80;;;18.90;;
14306;SDS011;7237;49.500;11.400;2022-09-25T04:03:46;22.97;;;19.27;;
14306;SDS011;7237;49.500;11.400;2022-09-25T04:06:14;21.83;;;18.37;;
14306;SDS011;7237;49.500;11.400;2022-09-25T04:08:42;20.93;;;18.27;;
14306;SDS011;7237;49.500;11.400;2022-09-25T04:11:09;20.60;;;18.50;;
14306;SDS011;7237;49.500;11.400;2022-09-25T04:13:38;22.23;;;19.53;;
14306;SDS011;7237;49.500;11.400;2022-09-25T04:16:06;21.07;;;18.73;;
14306;SDS011;7237;49.500;11.400;2022-09-25T04:18:33;20.03;;;17.90;;
14306;SDS011;7237;49.500;11.400;2022-09-25T04:21:01;19.60;;;17.60;;
14306;SDS011;7237;49.500;11.400;2022-09-25T04:23:29;20.57;;;18.40;;
14306;SDS011;7237;49.500;11.400;2022-09-25T04:25:56;18.83;;;17.03;;
14306;SDS011;7237;49.500;11.400;2022-09-25T04:28:23;21.77;;;17.57;;
14306;SDS011;7237;49.500;11.400;2022-09-25T04:30:52;18.50;;;16.70;;
14306;SDS011;7237;49.500;11.400;2022-09-25T04:33:19;18.47;;;16.60;;
14306;SDS011;7237;49.500;11.400;2022-09-25T04:36:04;18.13;;;16.43;;
14306;SDS011;7237;49.500;11.400;2022-09-25T04:38:31;19.20;;;17.13;;
14306;SDS011;7237;49.500;11.400;2022-09-25T04:40:58;21.33;;;19.17;;
14306;SDS011;7237;49.500;11.400;2022-09-25T04:43:26;20.33;;;18.23;;
14306;SDS011;7237;49.500;11.400;2022-09-25T04:45:59;22.37;;;18.80;;
14306;SDS011;7237;49.500;11.400;2022-09-25T04:48:26;21.43;;;19.03;;
14306;SDS011;7237;49.500;11.400;2022-09-25T04:50:53;19.47;;;17.57;;
14306;SDS011;7237;49.500;11.400;2022-09-25T04:53:20;21.17;;;18.67;;
14306;SDS011;7237;49.500;11.400;2022-09-25T04:55:47;22.33;;;19.93;;
14306;SDS011;7237;49.500;11.400;2022-09-25T04:58:15;19.63;;;17.70;;
14306;SDS011;7237;49.500;11.400;2022-09-25T05:00:42;21.33;;;18.67;;
14306;SDS011;7237;49.500;11.400;2022-09-25T05:03:10;21.80;;;19.53;;
14306;SDS011;7237;49.500;11.400;2022-09-25T05:05:38;21.00;;;18.60;;
14306;SDS011;7237;49.500;11.400;2022-09-25T05:08:05;18.37;;;16.47;;
14306;SDS011;7237;49.500;11.400;2022-09-25T05:10:32;19.57;;;17.53;;
14306;SDS011;7237;49.500;11.400;2022-09-25T05:13:00;19.33;;;17.33;;
14306;SDS011;7237;49.500;11.400;2022-09-25T05:15:28;20.20;;;17.53;;
14306;SDS011;7237;49.500;11.400;2022-09-25T05:17:59;19.73;;;16.10;;
14306;SDS011;7237;49.500;11.400;2022-09-25T05:20:27;19.07;;;17.07;;
14306;SDS011;7237;49.500;11.400;2022-09-25T05:22:54;18.60;;;16.37;;
14306;SDS011;7237;49.500;11.400;2022-09-25T05:25:21;18.00;;;16.20;;
14306;SDS011;7237;49.500;11.400;2022-09-25T05:27:49;17.20;;;15.43;;
14306;SDS011;7237;49.500;11.400;2022-09-25T05:30:17;19.70;;;16.33;;
14306;SDS011;7237;49.500;11.400;2022-09-25T05:32:48;17.90;;;16.23;;
14306;SDS011;7237;49.500;11.400;2022-09-25T05:35:15;18.53;;;16.53;;
14306;SDS011;7237;49.500;11.400;2022-09-25T05:37:44;17.37;;;15.67;;
14306;SDS011;7237;49.500;11.400;2022-09-25T05:40:11;17.57;;;15.87;;
14306;SDS011;7237;49.500;11.400;2022-09-25T05:42:39;17.83;;;16.03;;
14306;SDS011;7237;49.500;11.400;2022-09-25T05:45:07;17.43;;;15.63;;
14306;SDS011;7237;49.500;11.400;2022-09-25T05:47:35;17.43;;;15.73;;
14306;SDS011;7237;49.500;11.400;2022-09-25T05:50:02;16.40;;;14.90;;
14306;SDS011;7237;49.500;11.400;2022-09-25T05:52:29;16.30;;;14.70;;
14306;SDS011;7237;49.500;11.400;2022-09-25T05:54:58;16.80;;;15.20;;
14306;SDS011;7237;49.500;11.400;2022-09-25T05:57:29;16.70;;;15.10;;
14306;SDS011;7237;49.500;11.400;2022-09-25T05:59:56;16.23;;;14.80;;
14306;SDS011;7237;49.500;11.400;2022-09-25T06:02:23;15.20;;;13.70;;
14306;SDS011;7237;49.500;11.400;2022-09-25T06:04:50;15.50;;;14.10;;
14306;SDS011;7237;49.500;11.400;2022-09-25T06:07:18;15.83;;;14.37;;
14306;SDS011;7237;49.500;11.400;2022-09-25T06:09:45;15.00;;;13.60;;
14306;SDS011;7237;49.500;11.400;2022-09-25T06:12:14;13.93;;;12.73;;
14306;SDS011;7237;49.500;11.400;2022-09-25T06:14:42;16.07;;;14.67;;
14306;SDS011;7237;49.500;11.400;2022-09-25T06:17:10;14.90;;;13.43;;
14306;SDS011;7237;49.500;11.400;2022-09-25T06:19:38;14.07;;;12.87;;
14306;SDS011;7237;49.500;11.400;2022-09-25T06:22:05;13.77;;;12.57;;
14306;SDS011;7237;49.500;11.400;2022-09-25T06:24:32;14.20;;;12.87;;
14306;SDS011;7237;49.500;11.400;2022-09-25T06:26:59;13.63;;;12.40;;
14306;SDS011;7237;49.500;11.400;2022-09-25T06:29:27;14.07;;;12.77;;
14306;SDS011;7237;49.500;11.400;2022-09-25T06:31:54;14.93;;;13.33;;
14306;SDS011;7237;49.500;11.400;2022-09-25T06:34:22;13.50;;;12.30;;
14306;SDS011;7237;49.500;11.400;2022-09-25T06:36:49;15.60;;;14.10;;
14306;SDS011;7237;49.500;11.400;2022-09-25T06:39:16;15.60;;;14.10;;
14306;SDS011;7237;49.500;11.400;2022-09-25T06:41:43;15.87;;;14.23;;
14306;SDS011;7237;49.500;11.400;2022-09-25T06:44:10;17.57;;;14.73;;
14306;SDS011;7237;49.500;11.400;2022-09-25T06:46:39;16.47;;;14.90;;
14306;SDS011;7237;49.500;11.400;2022-09-25T06:49:10;15.20;;;13.63;;
14306;SDS011;7237;49.500;11.400;2022-09-25T06:51:38;16.30;;;14.60;;
14306;SDS011;7237;49.500;11.400;2022-09-25T06:54:05;15.63;;;14.03;;
14306;SDS011;7237;49.500;11.400;2022-09-25T06:56:32;16.60;;;14.20;;
14306;SDS011;7237;49.500;11.400;2022-09-25T06:58:59;15.33;;;13.73;;
14306;SDS011;7237;49.500;11.400;2022-09-25T07:01:27;16.33;;;14.37;;
14306;SDS011;7237;49.500;11.400;2022-09-25T07:03:55;16.43;;;14.77;;
14306;SDS011;7237;49.500;11.400;2022-09-25T07:06:22;16.00;;;14.30;;
14306;SDS011;7237;49.500;11.400;2022-09-25T07:08:50;16.10;;;14.50;;
14306;SDS011;7237;49.500;11.400;2022-09-25T07:11:18;17.20;;;14.63;;
14306;SDS011;7237;49.500;11.400;2022-09-25T07:13:46;15.73;;;14.13;;
14306;SDS011;7237;49.500;11.400;2022-09-25T07:16:19;15.37;;;13.87;;
14306;SDS011;7237;49.500;11.400;2022-09-25T07:18:46;14.60;;;13.10;;
14306;SDS011;7237;49.500;11.400;2022-09-25T07:21:16;15.40;;;13.90;;
14306;SDS011;7237;49.500;11.400;2022-09-25T07:23:45;14.50;;;13.07;;
14306;SDS011;7237;49.500;11.400;2022-09-25T07:26:13;14.80;;;13.50;;
14306;SDS011;7237;49.500;11.400;2022-09-25T07:28:41;13.43;;;12.23;;
14306;SDS011;7237;49.500;11.400;2022-09-25T07:31:09;13.87;;;12.47;;
14306;SDS011;7237;49.500;11.400;2022-09-25T07:33:36;14.77;;;13.37;;
14306;SDS011;7237;49.500;11.400;2022-09-25T07:36:03;14.93;;;13.53;;
14306;SDS011;7237;49.500;11.400;2022-09-25T07:38:32;14.07;;;12.67;;
14306;SDS011;7237;49.500;11.400;2022-09-25T07:41:00;14.33;;;12.93;;
14306;SDS011;7237;49.500;11.400;2022-09-25T07:43:29;14.70;;;13.30;;
14306;SDS011;7237;49.500;11.400;2022-09-25T07:45:56;14.07;;;12.77;;
14306;SDS011;7237;49.500;11.400;2022-09-25T07:48:24;13.93;;;12.63;;
14306;SDS011;7237;49.500;11.400;2022-09-25T07:50:51;13.57;;;12.37;;
14306;SDS011;7237;49.500;11.400;2022-09-25T07:53:19;13.20;;;11.90;;
14306;SDS011;7237;49.500;11.400;2022-09-25T07:55:48;13.47;;;12.27;;
14306;SDS011;7237;49.500;11.400;2022-09-25T07:58:15;12.20;;;11.03;;
14306;SDS011;7237;49.500;11.400;2022-09-25T08:00:43;13.77;;;12.03;;
14306;SDS011;7237;49.500;11.400;2022-09-25T08:03:10;12.33;;;11.23;;
14306;SDS011;7237;49.500;11.400;2022-09-25T08:05:38;11.43;;;10.43;;
14306;SDS011;7237;49.500;11.400;2022-09-25T08:08:05;11.87;;;10.77;;
14306;SDS011;7237;49.500;11.400;2022-09-25T08:10:32;12.03;;;10.83;;
14306;SDS011;7237;49.500;11.400;2022-09-25T08:13:00;12.23;;;11.10;;
14306;SDS011;7237;49.500;11.400;2022-09-25T08:15:28;11.52;;;10.52;;
14306;SDS011;7237;49.500;11.400;2022-09-25T08:17:55;11.63;;;10.47;;
14306;SDS011;7237;49.500;11.400;2022-09-25T08:20:22;11.57;;;10.47;;
14306;SDS011;7237;49.500;11.400;2022-09-25T08:22:51;11.40;;;10.40;;
14306;SDS011;7237;49.500;11.400;2022-09-25T08:25:18;13.80;;;10.90;;
14306;SDS011;7237;49.500;11.400;2022-09-25T08:27:46;11.32;;;10.32;;
14306;SDS011;7237;49.500;11.400;2022-09-25T08:30:15;11.57;;;10.57;;
14306;SDS011;7237;49.500;11.400;2022-09-25T08:32:42;11.00;;;10.00;;
14306;SDS011;7237;49.500;11.400;2022-09-25T08:35:09;11.73;;;10.65;;
14306;SDS011;7237;49.500;11.400;2022-09-25T08:37:38;11.18;;;9.98;;
14306;SDS011;7237;49.500;11.400;2022-09-25T08:40:06;11.30;;;10.30;;
14306;SDS011;7237;49.500;11.400;2022-09-25T08:42:34;12.27;;;11.07;;
14306;SDS011;7237;49.500;11.400;2022-09-25T08:45:04;12.02;;;10.82;;
14306;SDS011;7237;49.500;11.400;2022-09-25T08:47:51;13.45;;;12.15;;
14306;SDS011;7237;49.500;11.400;2022-09-25T08:50:37;14.00;;;12.60;;
14306;SDS011;7237;49.500;11.400;2022-09-25T08:53:06;13.20;;;11.93;;
14306;SDS011;7237;49.500;11.400;2022-09-25T08:55:34;12.82;;;11.73;;
14306;SDS011;7237;49.500;11.400;2022-09-25T08:58:28;13.05;;;11.75;;
14306;SDS011;7237;49.500;11.400;2022-09-25T09:00:57;14.30;;;11.25;;
14306;SDS011;7237;49.500;11.400;2022-09-25T09:03:26;11.68;;;10.57;;
14306;SDS011;7237;49.500;11.400;2022-09-25T09:05:55;11.45;;;10.45;;
14306;SDS011;7237;49.500;11.400;2022-09-25T09:08:23;11.18;;;10.18;;
14306;SDS011;7237;49.500;11.400;2022-09-25T09:10:52;11.00;;;10.00;;
14306;SDS011;7237;49.500;11.400;2022-09-25T09:13:22;11.32;;;10.23;;
14306;SDS011;7237;49.500;11.400;2022-09-25T09:15:51;11.07;;;10.10;;
14306;SDS011;7237;49.500;11.400;2022-09-25T09:18:21;11.70;;;10.57;;
14306;SDS011;7237;49.500;11.400;2022-09-25T09:20:51;11.43;;;10.20;;
14306;SDS011;7237;49.500;11.400;2022-09-25T09:23:19;11.57;;;10.55;;
14306;SDS011;7237;49.500;11.400;2022-09-25T09:25:48;12.32;;;11.20;;
14306;SDS011;7237;49.500;11.400;2022-09-25T09:28:32;12.65;;;11.52;;
14306;SDS011;7237;49.500;11.400;2022-09-25T09:31:06;12.60;;;10.77;;
14306;SDS011;7237;49.500;11.400;2022-09-25T09:33:39;13.40;;;12.10;;
14306;SDS011;7237;49.500;11.400;2022-09-25T09:36:10;14.23;;;11.43;;
14306;SDS011;7237;49.500;11.400;2022-09-25T09:38:42;13.98;;;12.50;;
14306;SDS011;7237;49.500;11.400;2022-09-25T09:41:17;13.60;;;12.32;;
14306;SDS011;7237;49.500;11.400;2022-09-25T09:43:59;12.88;;;11.68;;
14306;SDS011;7237;49.500;11.400;2022-09-25T09:46:32;13.98;;;12.57;;
14306;SDS011;7237;49.500;11.400;2022-09-25T09:49:04;14.75;;;13.25;;
14306;SDS011;7237;49.500;11.400;2022-09-25T09:51:35;14.00;;;12.60;;
14306;SDS011;7237;49.500;11.400;2022-09-25T09:54:07;13.55;;;12.25;;
14306;SDS011;7237;49.500;11.400;2022-09-25T09:56:35;17.73;;;12.90;;
14306;SDS011;7237;49.500;11.400;2022-09-25T09:59:03;13.50;;;12.10;;
14306;SDS011;7237;49.500;11.400;2022-09-25T10:01:31;13.60;;;11.85;;
14306;SDS011;7237;49.500;11.400;2022-09-25T10:04:02;11.82;;;10.63;;
14306;SDS011;7237;49.500;11.400;2022-09-25T10:06:29;12.50;;;11.15;;
14306;SDS011;7237;49.500;11.400;2022-09-25T10:09:01;15.05;;;13.43;;
14306;SDS011;7237;49.500;11.400;2022-09-25T10:11:28;17.08;;;15.20;;
14306;SDS011;7237;49.500;11.400;2022-09-25T10:13:57;15.88;;;14.18;;
14306;SDS011;7237;49.500;11.400;2022-09-25T10:16:25;11.30;;;10.23;;
14306;SDS011;7237;49.500;11.400;2022-09-25T10:18:52;11.32;;;9.00;;
14306;SDS011;7237;49.500;11.400;2022-09-25T10:21:21;10.23;;;9.23;;
14306;SDS011;7237;49.500;11.400;2022-09-25T10:23:49;10.30;;;9.40;;
14306;SDS011;7237;49.500;11.400;2022-09-25T10:26:25;9.75;;;8.85;;
14306;SDS011;7237;49.500;11.400;2022-09-25T10:28:53;7.90;;;7.20;;
14306;SDS011;7237;49.500;11.400;2022-09-25T10:31:21;8.48;;;7.70;;
14306;SDS011;7237;49.500;11.400;2022-09-25T10:33:56;9.57;;;8.68;;
14306;SDS011;7237;49.500;11.400;2022-09-25T10:36:31;10.00;;;9.00;;
14306;SDS011;7237;49.500;11.400;2022-09-25T10:38:58;9.52;;;8.63;;
14306;SDS011;7237;49.500;11.400;2022-09-25T10:41:26;9.05;;;8.15;;
14306;SDS011;7237;49.500;11.400;2022-09-25T10:43:57;8.82;;;8.00;;
14306;SDS011;7237;49.500;11.400;2022-09-25T10:46:26;7.90;;;7.10;;
14306;SDS011;7237;49.500;11.400;2022-09-25T10:49:11;7.88;;;7.18;;
14306;SDS011;7237;49.500;11.400;2022-09-25T10:52:02;8.35;;;7.47;;
14306;SDS011;7237;49.500;11.400;2022-09-25T10:54:30;8.48;;;7.68;;
14306;SDS011;7237;49.500;11.400;2022-09-25T10:56:59;7.88;;;7.07;;
14306;SDS011;7237;49.500;11.400;2022-09-25T10:59:26;8.05;;;7.25;;
14306;SDS011;7237;49.500;11.400;2022-09-25T11:01:53;7.70;;;7.00;;
14306;SDS011;7237;49.500;11.400;2022-09-25T11:04:21;5.97;;;5.47;;
14306;SDS011;7237;49.500;11.400;2022-09-25T11:06:50;5.43;;;4.93;;
14306;SDS011;7237;49.500;11.400;2022-09-25T11:09:18;5.45;;;4.43;;
14306;SDS011;7237;49.500;11.400;2022-09-25T11:11:46;5.25;;;4.75;;
14306;SDS011;7237;49.500;11.400;2022-09-25T11:14:17;5.30;;;4.80;;
14306;SDS011;7237;49.500;11.400;2022-09-25T11:16:47;4.78;;;4.10;;
14306;SDS011;7237;49.500;11.400;2022-09-25T11:19:17;5.38;;;3.97;;
14306;SDS011;7237;49.500;11.400;2022-09-25T11:21:49;4.47;;;4.07;;
14306;SDS011;7237;49.500;11.400;2022-09-25T11:24:22;7.43;;;6.72;;
14306;SDS011;7237;49.500;11.400;2022-09-25T11:26:53;8.60;;;7.80;;
14306;SDS011;7237;49.500;11.400;2022-09-25T11:29:23;7.43;;;6.82;;
14306;SDS011;7237;49.500;11.400;2022-09-25T11:31:58;7.75;;;7.03;;
14306;SDS011;7237;49.500;11.400;2022-09-25T11:34:33;6.60;;;5.80;;
14306;SDS011;7237;49.500;11.400;2022-09-25T11:37:04;5.78;;;5.00;;
14306;SDS011;7237;49.500;11.400;2022-09-25T11:39:34;5.43;;;4.93;;
14306;SDS011;7237;49.500;11.400;2022-09-25T11:42:24;5.18;;;4.78;;
14306;SDS011;7237;49.500;11.400;2022-09-25T11:44:57;6.85;;;4.80;;
14306;SDS011;7237;49.500;11.400;2022-09-25T11:47:27;5.10;;;4.70;;
14306;SDS011;7237;49.500;11.400;2022-09-25T11:49:55;5.63;;;4.72;;
14306;SDS011;7237;49.500;11.400;2022-09-25T11:52:28;5.18;;;4.68;;
14306;SDS011;7237;49.500;11.400;2022-09-25T11:57:41;5.47;;;4.93;;
14306;SDS011;7237;49.500;11.400;2022-09-25T12:00:14;6.30;;;5.70;;
14306;SDS011;7237;49.500;11.400;2022-09-25T12:02:49;6.07;;;5.47;;
14306;SDS011;7237;49.500;11.400;2022-09-25T12:05:23;10.30;;;5.55;;
14306;SDS011;7237;49.500;11.400;2022-09-25T12:07:59;6.22;;;5.63;;
14306;SDS011;7237;49.500;11.400;2022-09-25T12:10:31;9.18;;;5.70;;
14306;SDS011;7237;49.500;11.400;2022-09-25T12:13:02;6.35;;;5.75;;
14306;SDS011;7237;49.500;11.400;2022-09-25T12:15:37;5.60;;;5.10;;
14306;SDS011;7237;49.500;11.400;2022-09-25T12:18:09;4.75;;;4.35;;
14306;SDS011;7237;49.500;11.400;2022-09-25T12:20:39;5.03;;;4.63;;
14306;SDS011;7237;49.500;11.400;2022-09-25T12:23:13;4.40;;;4.00;;
14306;SDS011;7237;49.500;11.400;2022-09-25T12:25:48;5.72;;;5.22;;
14306;SDS011;7237;49.500;11.400;2022-09-25T12:28:19;5.60;;;5.10;;
14306;SDS011;7237;49.500;11.400;2022-09-25T12:30:53;4.95;;;4.50;;
14306;SDS011;7237;49.500;11.400;2022-09-25T12:33:24;4.40;;;4.00;;
14306;SDS011;7237;49.500;11.400;2022-09-25T12:35:56;3.92;;;3.63;;
14306;SDS011;7237;49.500;11.400;2022-09-25T12:38:30;6.03;;;4.30;;
14306;SDS011;7237;49.500;11.400;2022-09-25T12:41:00;4.30;;;3.90;;
14306;SDS011;7237;49.500;11.400;2022-09-25T12:43:31;4.72;;;3.58;;
14306;SDS011;7237;49.500;11.400;2022-09-25T12:46:05;3.45;;;3.15;;
14306;SDS011;7237;49.500;11.400;2022-09-25T12:48:34;4.30;;;3.05;;
14306;SDS011;7237;49.500;11.400;2022-09-25T12:51:04;3.83;;;3.42;;
14306;SDS011;7237;49.500;11.400;2022-09-25T12:53:34;1.60;;;1.38;;
14306;SDS011;7237;49.500;11.400;2022-09-25T12:56:03;1.10;;;1.00;;
14306;SDS011;7237;49.500;11.400;2022-09-25T13:01:39;3.13;;;1.00;;
14306;SDS011;7237;49.500;11.400;2022-09-25T13:04:15;0.80;;;0.80;;
14306;SDS011;7237;49.500;11.400;2022-09-25T13:06:46;4.33;;;0.80;;
14306;SDS011;7237;49.500;11.400;2022-09-25T13:09:17;4.87;;;1.13;;
14306;SDS011;7237;49.500;11.400;2022-09-25T13:11:46;1.63;;;1.30;;
14306;SDS011;7237;49.500;11.400;2022-09-25T13:14:15;1.80;;;1.50;;
14306;SDS011;7237;49.500;11.400;2022-09-25T13:16:46;3.13;;;2.93;;
14306;SDS011;7237;49.500;11.400;2022-09-25T13:19:22;4.67;;;3.13;;
14306;SDS011;7237;49.500;11.400;2022-09-25T13:21:49;8.17;;;3.50;;
14306;SDS011;7237;49.500;11.400;2022-09-25T13:24:16;3.00;;;1.60;;
14306;SDS011;7237;49.500;11.400;2022-09-25T13:26:45;3.27;;;1.60;;
14306;SDS011;7237;49.500;11.400;2022-09-25T13:29:16;1.20;;;1.20;;
14306;SDS011;7237;49.500;11.400;2022-09-25T13:31:47;1.90;;;1.70;;
14306;SDS011;7237;49.500;11.400;2022-09-25T13:34:14;2.00;;;1.90;;
14306;SDS011;7237;49.500;11.400;2022-09-25T13:36:44;3.97;;;2.30;;
14306;SDS011;7237;49.500;11.400;2022-09-25T13:39:16;3.47;;;2.80;;
14306;SDS011;7237;49.500;11.400;2022-09-25T13:42:02;4.43;;;3.70;;
14306;SDS011;7237;49.500;11.400;2022-09-25T13:44:47;1.87;;;1.77;;
14306;SDS011;7237;49.500;11.400;2022-09-25T13:50:11;3.87;;;3.30;;
14306;SDS011;7237;49.500;11.400;2022-09-25T13:52:50;3.80;;;1.50;;
14306;SDS011;7237;49.500;11.400;2022-09-25T13:55:39;1.77;;;1.60;;
14306;SDS011;7237;49.500;11.400;2022-09-25T13:58:15;1.90;;;1.47;;
14306;SDS011;7237;49.500;11.400;2022-09-25T14:00:52;1.90;;;1.00;;
14306;SDS011;7237;49.500;11.400;2022-09-25T14:03:28;2.53;;;1.47;;
14306;SDS011;7237;49.500;11.400;2022-09-25T14:05:58;1.67;;;1.30;;
14306;SDS011;7237;49.500;11.400;2022-09-25T14:08:25;2.72;;;1.65;;
14306;SDS011;7237;49.500;11.400;2022-09-25T14:10:55;2.08;;;1.98;;
14306;SDS011;7237;49.500;11.400;2022-09-25T14:13:24;1.60;;;1.50;;
14306;SDS011;7237;49.500;11.400;2022-09-25T14:15:51;6.05;;;1.80;;
14306;SDS011;7237;49.500;11.400;2022-09-25T14:18:21;1.55;;;1.45;;
14306;SDS011;7237;49.500;11.400;2022-09-25T14:20:50;2.03;;;1.70;;
14306;SDS011;7237;49.500;11.400;2022-09-25T14:23:25;2.13;;;1.45;;
14306;SDS011;7237;49.500;11.400;2022-09-25T14:25:57;1.75;;;1.65;;
14306;SDS011;7237;49.500;11.400;2022-09-25T14:28:25;4.20;;;1.60;;
14306;SDS011;7237;49.500;11.400;2022-09-25T14:30:57;2.92;;;1.60;;
14306;SDS011;7237;49.500;11.400;2022-09-25T14:33:35;1.52;;;1.42;;
14306;SDS011;7237;49.500;11.400;2022-09-25T14:36:09;1.60;;;1.50;;
14306;SDS011;7237;49.500;11.400;2022-09-25T14:38:45;2.37;;;1.63;;
14306;SDS011;7237;49.500;11.400;2022-09-25T14:41:25;1.87;;;1.77;;
14306;SDS011;7237;49.500;11.400;2022-09-25T14:44:01;2.43;;;1.53;;
14306;SDS011;7237;49.500;11.400;2022-09-25T14:46:29;1.80;;;1.70;;
14306;SDS011;7237;49.500;11.400;2022-09-25T14:48:58;2.60;;;1.70;;
14306;SDS011;7237;49.500;11.400;2022-09-25T14:51:27;1.70;;;1.60;;
14306;SDS011;7237;49.500;11.400;2022-09-25T14:53:57;2.37;;;1.60;;
14306;SDS011;7237;49.500;11.400;2022-09-25T14:56:27;1.97;;;1.77;;
14306;SDS011;7237;49.500;11.400;2022-09-25T14:58:58;1.70;;;1.60;;